createdAt,value
2023-11-19T00:00:00.971Z,9.03
2023-11-19T00:02:28.024Z,9.07
2023-11-19T00:04:54.896Z,9.16
2023-11-19T00:07:22.026Z,9.17
2023-11-19T00:09:49.126Z,9.21
2023-11-19T00:12:15.852Z,9.27
2023-11-19T00:14:42.595Z,9.37
2023-11-19T00:17:09.096Z,9.41
2023-11-19T00:19:35.585Z,9.38
2023-11-19T00:22:04.150Z,9.36
2023-11-19T00:24:31.673Z,9.40
2023-11-19T00:26:58.395Z,9.33
2023-11-19T00:29:25.006Z,9.33
2023-11-19T00:31:51.723Z,9.34
2023-11-19T00:34:22.364Z,9.39
2023-11-19T00:36:49.504Z,9.40
2023-11-19T00:39:16.942Z,9.41
2023-11-19T00:41:43.742Z,9.40
2023-11-19T00:44:10.302Z,9.39
2023-11-19T00:46:38.097Z,9.38
2023-11-19T00:49:05.117Z,9.41
2023-11-19T00:51:32.602Z,9.46
2023-11-19T00:54:00.370Z,9.48
2023-11-19T00:56:26.981Z,9.50
2023-11-19T00:58:53.547Z,9.44
2023-11-19T01:01:20.293Z,9.46
2023-11-19T01:03:47.100Z,9.47
2023-11-19T01:06:15.196Z,9.48
2023-11-19T01:08:44.220Z,9.52
2023-11-19T01:11:21.941Z,9.50
2023-11-19T01:13:49.148Z,9.52
2023-11-19T01:16:15.842Z,9.56
2023-11-19T01:18:42.696Z,9.54
2023-11-19T01:21:09.614Z,9.56
2023-11-19T01:23:38.145Z,9.58
2023-11-19T01:26:06.597Z,9.61
2023-11-19T01:28:33.305Z,9.57
2023-11-19T01:30:59.971Z,9.58
2023-11-19T01:33:26.464Z,9.59
2023-11-19T01:35:52.959Z,9.61
2023-11-19T01:38:19.440Z,9.64
2023-11-19T01:40:46.019Z,9.65
2023-11-19T01:43:12.782Z,9.61
2023-11-19T01:45:40.839Z,9.69
2023-11-19T01:48:08.010Z,9.70
2023-11-19T01:50:35.037Z,9.76
2023-11-19T01:53:01.880Z,9.73
2023-11-19T01:55:29.737Z,9.75
2023-11-19T01:58:02.380Z,9.74
2023-11-19T02:00:29.326Z,9.74
2023-11-19T02:02:56.836Z,9.76
2023-11-19T02:05:24.303Z,9.78
2023-11-19T02:07:52.415Z,9.82
2023-11-19T02:10:20.352Z,9.76
2023-11-19T02:12:47.356Z,9.77
2023-11-19T02:15:14.052Z,9.81
2023-11-19T02:17:40.950Z,9.77
2023-11-19T02:20:10.391Z,9.78
2023-11-19T02:22:36.897Z,9.74
2023-11-19T02:25:08.305Z,9.70
2023-11-19T02:27:42.242Z,9.75
2023-11-19T02:30:09.762Z,9.78
2023-11-19T02:32:36.907Z,9.73
2023-11-19T02:37:32.973Z,9.74
2023-11-19T02:40:10.368Z,9.77
2023-11-19T02:42:37.156Z,9.68
2023-11-19T02:45:07.212Z,9.74
2023-11-19T02:47:34.716Z,9.70
2023-11-19T02:50:01.872Z,9.63
2023-11-19T02:52:28.502Z,9.66
2023-11-19T02:54:55.379Z,9.66
2023-11-19T02:57:22.827Z,9.65
2023-11-19T02:59:49.857Z,9.67
2023-11-19T03:02:19.055Z,9.71
2023-11-19T03:04:46.856Z,9.68
2023-11-19T03:07:39.365Z,9.70
2023-11-19T03:10:06.917Z,9.75
2023-11-19T03:12:33.468Z,9.70
2023-11-19T03:14:59.986Z,9.77
2023-11-19T03:17:26.601Z,9.75
2023-11-19T03:19:53.125Z,9.78
2023-11-19T03:22:19.711Z,9.75
2023-11-19T03:24:46.241Z,9.74
2023-11-19T03:27:14.025Z,9.70
2023-11-19T03:29:41.383Z,9.70
2023-11-19T03:32:08.029Z,9.64
2023-11-19T03:34:34.546Z,9.71
2023-11-19T03:37:01.176Z,9.66
2023-11-19T03:39:28.197Z,9.61
2023-11-19T03:41:55.054Z,9.66
2023-11-19T03:44:22.177Z,9.69
2023-11-19T03:46:48.766Z,9.74
2023-11-19T03:49:15.366Z,9.77
2023-11-19T03:51:41.995Z,9.76
2023-11-19T03:54:08.508Z,9.74
2023-11-19T03:56:35.099Z,9.77
2023-11-19T03:59:01.683Z,9.80
2023-11-19T04:01:28.312Z,9.67
2023-11-19T04:03:56.995Z,9.68
2023-11-19T04:06:24.051Z,9.71
2023-11-19T04:08:50.749Z,9.71
2023-11-19T04:11:18.234Z,9.70
2023-11-19T04:13:45.161Z,9.67
2023-11-19T04:16:11.781Z,9.75
2023-11-19T04:18:38.369Z,9.74
2023-11-19T04:21:07.735Z,9.76
2023-11-19T04:23:34.286Z,9.81
2023-11-19T04:28:34.548Z,9.78
2023-11-19T04:31:01.599Z,9.80
2023-11-19T04:33:28.229Z,9.83
2023-11-19T04:35:55.021Z,9.80
2023-11-19T04:38:21.488Z,9.75
2023-11-19T04:40:48.066Z,9.78
2023-11-19T04:43:14.697Z,9.79
2023-11-19T04:45:41.305Z,9.79
2023-11-19T04:48:07.848Z,9.75
2023-11-19T04:50:34.358Z,21.98
2023-11-19T04:53:01.427Z,22.05
2023-11-19T04:55:28.021Z,11.95
2023-11-19T04:57:55.535Z,10.91
2023-11-19T05:02:49.596Z,10.62
2023-11-19T05:05:17.352Z,10.62
2023-11-19T05:07:44.071Z,10.61
2023-11-19T05:10:10.905Z,10.56
2023-11-19T05:12:37.414Z,10.59
2023-11-19T05:15:04.269Z,10.59
2023-11-19T05:17:30.869Z,10.61
2023-11-19T05:19:57.384Z,10.57
2023-11-19T05:22:24.033Z,10.56
2023-11-19T05:24:50.814Z,10.53
2023-11-19T05:27:17.534Z,10.51
2023-11-19T05:29:44.850Z,10.54
2023-11-19T05:32:11.521Z,10.55
2023-11-19T05:34:38.067Z,10.51
2023-11-19T05:37:06.742Z,10.54
2023-11-19T05:39:33.425Z,10.52
2023-11-19T05:42:00.183Z,10.56
2023-11-19T05:44:26.888Z,10.48
2023-11-19T05:46:53.507Z,10.52
2023-11-19T05:49:20.063Z,10.42
2023-11-19T05:51:47.343Z,10.40
2023-11-19T05:54:14.641Z,10.38
2023-11-19T05:56:41.209Z,10.44
2023-11-19T05:59:16.300Z,10.52
2023-11-19T06:01:43.311Z,10.48
2023-11-19T06:04:09.895Z,10.43
2023-11-19T06:06:37.136Z,10.54
2023-11-19T06:11:35.361Z,10.53
2023-11-19T06:14:01.903Z,10.55
2023-11-19T06:16:28.462Z,10.56
2023-11-19T06:18:55.089Z,10.41
2023-11-19T06:21:21.745Z,10.44
2023-11-19T06:23:48.252Z,10.47
2023-11-19T06:26:15.228Z,10.45
2023-11-19T06:28:41.789Z,10.45
2023-11-19T06:31:08.596Z,10.41
2023-11-19T06:33:35.107Z,10.45
2023-11-19T06:36:01.686Z,10.50
2023-11-19T06:38:28.172Z,10.56
2023-11-19T06:40:55.050Z,10.56
2023-11-19T06:43:22.810Z,10.56
2023-11-19T06:45:49.416Z,10.64
2023-11-19T06:48:15.946Z,10.72
2023-11-19T06:50:42.430Z,10.70
2023-11-19T06:53:11.474Z,10.78
2023-11-19T06:55:38.167Z,10.81
2023-11-19T06:58:04.910Z,10.88
2023-11-19T07:00:33.595Z,10.94
2023-11-19T07:03:00.880Z,10.83
2023-11-19T07:05:27.638Z,10.80
2023-11-19T07:07:55.039Z,10.89
2023-11-19T07:10:21.589Z,10.84
2023-11-19T07:12:48.164Z,10.97
2023-11-19T07:15:14.822Z,11.02
2023-11-19T07:17:41.490Z,10.99
2023-11-19T07:20:08.626Z,11.03
2023-11-19T07:22:35.148Z,11.02
2023-11-19T07:25:02.361Z,11.08
2023-11-19T07:27:28.948Z,11.07
2023-11-19T07:29:55.497Z,11.15
2023-11-19T07:32:21.999Z,11.23
2023-11-19T07:34:48.511Z,11.25
2023-11-19T07:37:14.981Z,11.35
2023-11-19T07:39:42.572Z,11.39
2023-11-19T07:42:10.416Z,11.34
2023-11-19T07:44:37.874Z,11.43
2023-11-19T07:47:04.905Z,11.54
2023-11-19T07:49:32.052Z,11.57
2023-11-19T07:51:58.612Z,11.49
2023-11-19T07:54:25.304Z,11.54
2023-11-19T07:56:52.036Z,11.52
2023-11-19T07:59:18.596Z,11.59
2023-11-19T08:01:45.093Z,11.49
2023-11-19T08:04:12.494Z,11.45
2023-11-19T08:06:39.268Z,11.53
2023-11-19T08:09:06.680Z,11.54
2023-11-19T08:11:34.713Z,11.43
2023-11-19T08:14:01.318Z,11.44
2023-11-19T08:16:27.828Z,11.43
2023-11-19T08:18:55.010Z,11.48
2023-11-19T08:21:23.784Z,11.57
2023-11-19T08:23:50.411Z,11.61
2023-11-19T08:26:20.379Z,11.62
2023-11-19T08:28:48.745Z,11.70
2023-11-19T08:31:15.267Z,11.73
2023-11-19T08:33:41.767Z,11.92
2023-11-19T08:36:08.837Z,11.81
2023-11-19T08:38:35.380Z,11.66
2023-11-19T08:41:01.979Z,11.70
2023-11-19T08:43:28.857Z,11.81
2023-11-19T08:45:55.488Z,11.94
2023-11-19T08:48:22.150Z,11.89
2023-11-19T08:50:48.980Z,11.82
2023-11-19T08:53:15.536Z,11.78
2023-11-19T08:55:42.080Z,11.77
2023-11-19T08:58:08.634Z,11.75
2023-11-19T09:00:35.117Z,11.87
2023-11-19T09:03:01.773Z,11.86
2023-11-19T09:05:28.393Z,11.94
2023-11-19T09:07:54.945Z,12.06
2023-11-19T09:10:21.481Z,12.09
2023-11-19T09:12:47.970Z,12.12
2023-11-19T09:15:14.595Z,12.01
2023-11-19T09:17:42.098Z,12.02
2023-11-19T09:20:09.639Z,12.10
2023-11-19T09:22:36.307Z,12.11
2023-11-19T09:25:02.881Z,12.21
2023-11-19T09:27:29.368Z,12.23
2023-11-19T09:29:58.734Z,12.32
2023-11-19T09:32:25.982Z,12.32
2023-11-19T09:34:52.641Z,12.37
2023-11-19T09:37:22.524Z,12.63
2023-11-19T09:39:49.540Z,12.66
2023-11-19T09:42:17.009Z,12.73
2023-11-19T09:44:44.361Z,12.65
2023-11-19T09:47:13.731Z,12.64
2023-11-19T09:49:40.628Z,12.69
2023-11-19T09:52:07.292Z,12.73
2023-11-19T09:54:33.844Z,12.74
2023-11-19T09:57:05.254Z,12.78
2023-11-19T09:59:33.116Z,12.69
2023-11-19T10:02:00.782Z,12.36
2023-11-19T10:04:31.741Z,12.59
2023-11-19T10:06:58.439Z,12.63
2023-11-19T10:09:25.151Z,12.60
2023-11-19T10:11:51.730Z,12.73
2023-11-19T10:14:24.268Z,12.78
2023-11-19T10:16:50.871Z,12.91
2023-11-19T10:19:21.866Z,12.99
2023-11-19T10:21:48.683Z,12.98
2023-11-19T10:24:30.036Z,13.02
2023-11-19T10:26:58.514Z,13.16
2023-11-19T10:29:25.446Z,13.15
2023-11-19T10:32:23.489Z,13.18
2023-11-19T10:34:45.480Z,13.16
2023-11-19T10:37:33.766Z,13.13
2023-11-19T10:40:01.011Z,13.12
2023-11-19T10:42:27.857Z,13.18
2023-11-19T10:44:54.522Z,13.12
2023-11-19T10:47:38.127Z,13.04
2023-11-19T10:50:07.395Z,13.04
2023-11-19T10:52:34.465Z,13.10
2023-11-19T10:55:02.669Z,13.06
2023-11-19T10:57:31.240Z,12.90
2023-11-19T11:00:03.076Z,12.83
2023-11-19T11:02:36.108Z,12.76
2023-11-19T11:05:04.155Z,12.74
2023-11-19T11:07:39.521Z,12.54
2023-11-19T11:10:10.489Z,12.59
2023-11-19T11:12:39.170Z,13.08
2023-11-19T11:15:07.693Z,13.13
2023-11-19T11:17:35.390Z,13.24
2023-11-19T11:20:03.777Z,13.03
2023-11-19T11:25:24.838Z,13.34
2023-11-19T11:28:03.488Z,13.27
2023-11-19T11:30:47.518Z,13.23
2023-11-19T11:33:33.700Z,13.29
2023-11-19T11:36:11.992Z,13.30
2023-11-19T11:38:42.777Z,13.81
2023-11-19T11:41:31.746Z,13.85
2023-11-19T11:44:01.293Z,14.03
2023-11-19T11:46:37.751Z,13.80
2023-11-19T11:49:05.891Z,13.45
2023-11-19T11:51:44.964Z,13.13
2023-11-19T11:54:33.300Z,13.14
2023-11-19T11:59:42.711Z,13.43
2023-11-19T12:02:10.738Z,13.61
2023-11-19T12:04:38.642Z,13.72
2023-11-19T12:07:06.834Z,13.89
2023-11-19T12:09:34.536Z,14.09
2023-11-19T12:12:20.198Z,14.19
2023-11-19T12:15:06.820Z,14.08
2023-11-19T12:17:45.800Z,14.21
2023-11-19T12:20:12.922Z,14.02
2023-11-19T12:22:41.081Z,14.29
2023-11-19T12:25:09.969Z,13.98
2023-11-19T12:27:37.957Z,14.06
2023-11-19T12:30:07.898Z,14.38
2023-11-19T12:32:45.302Z,14.57
2023-11-19T12:35:12.793Z,14.67
2023-11-19T12:37:42.579Z,14.47
2023-11-19T12:40:18.795Z,14.38
2023-11-19T12:42:49.160Z,14.25
2023-11-19T12:45:17.367Z,14.20
2023-11-19T12:47:45.120Z,14.16
2023-11-19T12:50:11.744Z,13.90
2023-11-19T12:52:38.881Z,13.74
2023-11-19T12:55:07.633Z,13.67
2023-11-19T12:57:44.080Z,13.68
2023-11-19T13:00:22.330Z,13.39
2023-11-19T13:02:52.844Z,13.58
2023-11-19T13:05:34.073Z,13.73
2023-11-19T13:08:09.540Z,13.78
2023-11-19T13:10:57.153Z,13.70
2023-11-19T13:13:23.690Z,14.00
2023-11-19T13:15:50.810Z,13.88
2023-11-19T13:18:17.794Z,13.60
2023-11-19T13:20:44.596Z,13.38
2023-11-19T13:23:16.588Z,13.57
2023-11-19T13:25:44.824Z,13.48
2023-11-19T13:28:11.323Z,13.33
2023-11-19T13:30:37.832Z,13.27
2023-11-19T13:33:04.470Z,13.12
2023-11-19T13:35:31.055Z,12.84
2023-11-19T13:37:57.586Z,12.97
2023-11-19T13:40:25.866Z,13.06
2023-11-19T13:42:52.576Z,13.45
2023-11-19T13:45:19.618Z,13.43
2023-11-19T13:47:47.520Z,13.39
2023-11-19T13:50:15.682Z,13.45
2023-11-19T13:52:44.276Z,13.50
2023-11-19T13:55:11.643Z,13.66
2023-11-19T13:57:39.726Z,13.74
2023-11-19T14:00:12.151Z,13.77
2023-11-19T14:02:38.747Z,13.91
2023-11-19T14:05:05.707Z,13.98
2023-11-19T14:07:32.321Z,14.17
2023-11-19T14:09:59.309Z,14.11
2023-11-19T14:12:25.889Z,14.58
2023-11-19T14:14:52.448Z,14.92
2023-11-19T14:17:19.745Z,15.00
2023-11-19T14:19:46.380Z,14.84
2023-11-19T14:22:13.012Z,14.73
2023-11-19T14:24:41.887Z,14.66
2023-11-19T14:27:08.438Z,14.59
2023-11-19T14:29:35.244Z,15.02
2023-11-19T14:32:02.196Z,15.81
2023-11-19T14:34:28.982Z,16.21
2023-11-19T14:36:55.965Z,15.64
2023-11-19T14:39:22.487Z,14.72
2023-11-19T14:41:49.085Z,13.98
2023-11-19T14:44:15.618Z,13.66
2023-11-19T14:46:46.123Z,13.37
2023-11-19T14:49:12.650Z,13.11
2023-11-19T14:51:39.340Z,13.12
2023-11-19T14:54:06.684Z,12.73
2023-11-19T14:56:33.686Z,12.59
2023-11-19T14:59:00.209Z,12.37
2023-11-19T15:01:26.937Z,12.32
2023-11-19T15:03:54.754Z,12.07
2023-11-19T15:06:26.795Z,11.98
2023-11-19T15:08:53.417Z,11.89
2023-11-19T15:11:20.013Z,11.98
2023-11-19T15:13:46.539Z,11.87
2023-11-19T15:16:13.745Z,11.79
2023-11-19T15:18:40.431Z,11.67
2023-11-19T15:21:07.094Z,11.59
2023-11-19T15:23:33.690Z,11.59
2023-11-19T15:26:00.323Z,11.39
2023-11-19T15:28:26.869Z,11.37
2023-11-19T15:30:53.662Z,11.37
2023-11-19T15:33:20.188Z,11.40
2023-11-19T15:35:46.793Z,11.31
2023-11-19T15:38:13.366Z,11.15
2023-11-19T15:40:39.909Z,10.95
2023-11-19T15:43:07.697Z,10.96
2023-11-19T15:45:38.642Z,10.81
2023-11-19T15:48:06.977Z,10.82
2023-11-19T15:50:33.697Z,10.71
2023-11-19T15:53:00.496Z,10.70
2023-11-19T15:55:27.167Z,10.61
2023-11-19T15:57:53.672Z,10.64
2023-11-19T16:00:22.567Z,10.66
2023-11-19T16:02:51.591Z,10.60
2023-11-19T16:05:18.234Z,10.66
2023-11-19T16:07:44.784Z,10.48
2023-11-19T16:10:13.810Z,10.48
2023-11-19T16:12:41.520Z,10.58
2023-11-19T16:15:11.453Z,10.60
2023-11-19T16:17:39.807Z,10.44
2023-11-19T16:20:11.649Z,10.40
2023-11-19T16:22:39.171Z,10.44
2023-11-19T16:25:06.548Z,10.39
2023-11-19T16:27:33.281Z,10.36
2023-11-19T16:30:00.799Z,10.33
2023-11-19T16:32:27.443Z,10.27
2023-11-19T16:34:54.270Z,10.25
2023-11-19T16:37:23.859Z,10.27
2023-11-19T16:39:50.497Z,10.18
2023-11-19T16:42:20.622Z,10.12
2023-11-19T16:44:47.809Z,10.11
2023-11-19T16:47:14.371Z,10.19
2023-11-19T16:49:43.227Z,10.21
2023-11-19T16:52:11.175Z,10.17
2023-11-19T16:54:38.594Z,10.05
2023-11-19T16:57:05.516Z,10.10
2023-11-19T16:59:32.016Z,10.10
2023-11-19T17:01:58.524Z,10.11
2023-11-19T17:04:26.412Z,10.12
2023-11-19T17:06:52.932Z,10.11
2023-11-19T17:09:19.467Z,10.04
2023-11-19T17:11:46.287Z,10.03
2023-11-19T17:14:13.628Z,9.97
2023-11-19T17:16:41.278Z,10.01
2023-11-19T17:19:07.795Z,10.03
2023-11-19T17:21:34.341Z,9.99
2023-11-19T17:24:01.118Z,10.03
2023-11-19T17:26:44.695Z,10.01
2023-11-19T17:29:11.873Z,10.04
2023-11-19T17:31:38.733Z,10.12
2023-11-19T17:34:05.922Z,10.13
2023-11-19T17:36:32.595Z,10.10
2023-11-19T17:38:59.184Z,10.13
2023-11-19T17:41:25.927Z,10.02
2023-11-19T17:43:52.474Z,10.11
2023-11-19T17:46:19.081Z,10.18
2023-11-19T17:48:45.683Z,10.16
2023-11-19T17:51:12.290Z,10.11
2023-11-19T17:53:38.961Z,10.16
2023-11-19T17:56:06.353Z,10.13
2023-11-19T17:58:32.916Z,10.09
2023-11-19T18:00:59.845Z,10.11
2023-11-19T18:03:26.594Z,10.14
2023-11-19T18:05:53.999Z,10.07
2023-11-19T18:08:22.723Z,10.11
2023-11-19T18:10:50.517Z,10.07
2023-11-19T18:13:17.556Z,10.07
2023-11-19T18:15:44.884Z,10.08
2023-11-19T18:18:11.586Z,10.03
2023-11-19T18:20:38.332Z,10.06
2023-11-19T18:23:05.186Z,10.03
2023-11-19T18:25:32.951Z,9.98
2023-11-19T18:27:59.567Z,10.01
2023-11-19T18:30:26.059Z,9.96
2023-11-19T18:32:52.932Z,9.97
2023-11-19T18:35:24.738Z,9.94
2023-11-19T18:37:51.767Z,10.01
2023-11-19T18:40:22.235Z,9.95
2023-11-19T18:42:51.947Z,10.02
2023-11-19T18:45:22.705Z,10.02
2023-11-19T18:47:51.546Z,9.95
2023-11-19T18:50:18.629Z,9.94
2023-11-19T18:52:45.567Z,9.95
2023-11-19T18:55:12.191Z,9.96
2023-11-19T18:57:38.783Z,10.05
2023-11-19T19:00:08.483Z,10.05
2023-11-19T19:02:35.546Z,10.04
2023-11-19T19:05:02.579Z,10.05
2023-11-19T19:07:29.162Z,9.96
2023-11-19T19:09:57.274Z,9.99
2023-11-19T19:12:23.787Z,10.04
2023-11-19T19:14:50.695Z,10.06
2023-11-19T19:17:17.538Z,9.97
2023-11-19T19:19:44.492Z,9.96
2023-11-19T19:22:10.985Z,10.04
2023-11-19T19:24:40.984Z,10.04
2023-11-19T19:27:08.394Z,10.06
2023-11-19T19:29:35.178Z,9.95
2023-11-19T19:32:01.857Z,9.92
2023-11-19T19:34:30.022Z,9.95
2023-11-19T19:36:58.502Z,10.01
2023-11-19T19:39:25.661Z,9.97
2023-11-19T19:41:52.267Z,9.91
2023-11-19T19:44:20.714Z,9.95
2023-11-19T19:46:48.223Z,9.99
2023-11-19T19:49:14.756Z,9.99
2023-11-19T19:51:41.325Z,9.96
2023-11-19T19:54:07.884Z,9.98
2023-11-19T19:56:34.489Z,9.99
2023-11-19T19:59:01.069Z,10.01
2023-11-19T20:01:27.654Z,9.96
2023-11-19T20:03:54.339Z,9.99
2023-11-19T20:06:22.498Z,10.00
2023-11-19T20:08:50.145Z,10.01
2023-11-19T20:11:17.183Z,9.96
2023-11-19T20:13:43.689Z,9.93
2023-11-19T20:16:10.994Z,9.88
2023-11-19T20:18:37.697Z,9.93
2023-11-19T20:21:05.877Z,9.98
2023-11-19T20:23:32.992Z,9.92
2023-11-19T20:25:59.602Z,9.92
2023-11-19T20:28:26.142Z,9.91
2023-11-19T20:30:52.660Z,9.83
2023-11-19T20:33:19.318Z,9.82
2023-11-19T20:35:46.637Z,9.88
2023-11-19T20:38:14.201Z,9.85
2023-11-19T20:40:40.716Z,9.84
2023-11-19T20:43:07.343Z,9.78
2023-11-19T20:45:33.933Z,9.86
2023-11-19T20:48:00.634Z,9.90
2023-11-19T20:50:28.733Z,9.90
2023-11-19T20:52:57.681Z,9.84
2023-11-19T20:55:24.710Z,9.80
2023-11-19T20:57:52.041Z,9.76
2023-11-19T21:00:19.863Z,9.80
2023-11-19T21:02:46.558Z,9.85
2023-11-19T21:05:13.501Z,9.93
2023-11-19T21:07:41.303Z,9.91
2023-11-19T21:10:08.965Z,9.91
2023-11-19T21:12:35.720Z,9.77
2023-11-19T21:15:02.253Z,9.81
2023-11-19T21:17:28.816Z,9.91
2023-11-19T21:19:55.462Z,9.87
2023-11-19T21:22:22.009Z,9.83
2023-11-19T21:24:50.024Z,9.88
2023-11-19T21:27:17.758Z,9.90
2023-11-19T21:29:45.838Z,9.83
2023-11-19T21:32:12.562Z,9.85
2023-11-19T21:34:40.348Z,9.87
2023-11-19T21:37:07.574Z,9.90
2023-11-19T21:39:34.241Z,9.85
2023-11-19T21:42:00.929Z,9.80
2023-11-19T21:44:27.491Z,9.84
2023-11-19T21:46:54.071Z,9.89
2023-11-19T21:49:20.636Z,9.91
2023-11-19T21:51:47.197Z,9.89
2023-11-19T21:54:13.903Z,9.79
2023-11-19T21:56:40.392Z,9.72
2023-11-19T21:59:06.949Z,9.82
2023-11-19T22:01:33.814Z,9.84
2023-11-19T22:04:00.870Z,9.79
2023-11-19T22:06:28.166Z,9.80
2023-11-19T22:08:54.847Z,9.84
2023-11-19T22:11:24.951Z,9.86
2023-11-19T22:13:52.042Z,9.85
2023-11-19T22:16:18.680Z,9.81
2023-11-19T22:18:45.286Z,9.78
2023-11-19T22:21:12.365Z,9.75
2023-11-19T22:23:39.099Z,9.77
2023-11-19T22:26:05.640Z,9.76
2023-11-19T22:28:32.195Z,9.68
2023-11-19T22:30:58.821Z,9.71
2023-11-19T22:33:25.464Z,9.78
2023-11-19T22:35:52.021Z,9.77
2023-11-19T22:38:18.870Z,9.77
2023-11-19T22:40:45.398Z,9.68
2023-11-19T22:43:11.888Z,9.66
2023-11-19T22:45:38.410Z,9.66
2023-11-19T22:48:05.072Z,9.57
2023-11-19T22:50:32.868Z,9.61
2023-11-19T22:53:01.269Z,9.63
2023-11-19T22:55:27.787Z,9.61
2023-11-19T23:00:30.427Z,9.53
2023-11-19T23:03:04.384Z,9.55
2023-11-19T23:05:33.262Z,9.47
2023-11-19T23:08:01.213Z,9.45
2023-11-19T23:10:27.842Z,9.48
2023-11-19T23:12:54.677Z,9.47
2023-11-19T23:15:23.439Z,9.48
2023-11-19T23:17:49.937Z,9.40
2023-11-19T23:20:16.649Z,9.36
2023-11-19T23:22:44.336Z,9.40
2023-11-19T23:25:11.359Z,9.37
2023-11-19T23:27:38.835Z,9.38
2023-11-19T23:30:05.960Z,9.38
2023-11-19T23:32:32.541Z,9.37
2023-11-19T23:34:59.088Z,9.40
2023-11-19T23:37:26.292Z,9.38
2023-11-19T23:39:53.720Z,9.39
2023-11-19T23:42:23.041Z,9.44
2023-11-19T23:44:49.637Z,9.37
2023-11-19T23:47:16.106Z,9.39
2023-11-19T23:49:42.697Z,9.41
2023-11-19T23:52:10.512Z,9.40
2023-11-19T23:54:37.631Z,9.37
2023-11-19T23:57:04.981Z,9.32
2023-11-19T23:59:31.827Z,9.28
